Time;durP1;ratioP1;P1;durP2;ratioP2;P2;SDS_P1;SDS_P2;PMS_P1;PMS_P2;Temp;Humidity;BMP_temperature;BMP_pressure;BME280_temperature;BME280_humidity;BME280_pressure;Samples;Min_cycle;Max_cycle;Signal;HPM_P1;HPM_P2
2024/03/15 00:01:48;;;;;;;;;;;;;;;23.36;47.83;93958.00;5083709;28;8817;-59
2024/03/15 00:04:42;;;;;;;;;;;;;;;23.35;48.00;93964.75;5078735;28;7044;-59
2024/03/15 00:07:47;;;;;;;;;;;;;;;23.36;48.04;93957.28;5016601;28;9877;-63
2024/03/15 00:11:00;;;;;;;;;;;;;;;23.34;47.95;93966.00;5030125;28;9375;-63
2024/03/15 00:13:35;;;;;;;;;;;;;;;23.33;47.75;93966.50;5033882;28;9665;-63
2024/03/15 00:16:03;;;;;;;;;;;;;;;23.33;47.82;93958.25;5032103;28;9366;-61
2024/03/15 00:18:36;;;;;;;;;;;;;;;23.33;48.02;93963.75;5018965;28;9601;-61
2024/03/15 00:21:05;;;;;;;;;;;;;;;23.30;47.46;93962.75;5004158;28;9138;-60
2024/03/15 00:23:48;;;;;;;;;;;;;;;23.29;47.86;93963.28;5008611;28;8916;-61
2024/03/15 00:26:27;;;;;;;;;;;;;;;23.30;47.94;93962.00;5016375;28;9453;-59
2024/03/15 00:28:54;;;;;;;;;;;;;;;23.27;47.75;93963.03;5004296;28;8992;-59
2024/03/15 00:31:50;;;;;;;;;;;;;;;23.26;47.67;93973.25;5025311;28;9212;-59
2024/03/15 00:34:26;;;;;;;;;;;;;;;23.26;47.52;93967.75;4973161;28;7272;-59
2024/03/15 00:36:54;;;;;;;;;;;;;;;23.25;47.83;93974.50;4998740;28;9087;-59
2024/03/15 00:39:20;;;;;;;;;;;;;;;23.27;47.64;93974.75;4981358;28;9082;-59
2024/03/15 00:41:46;;;;;;;;;;;;;;;23.23;47.80;93961.28;4977429;28;7304;-59
2024/03/15 00:44:41;;;;;;;;;;;;;;;23.25;48.00;93969.75;5005879;28;8366;-59
2024/03/15 00:47:25;;;;;;;;;;;;;;;23.25;47.92;93969.00;4997305;28;9088;-59
2024/03/15 00:50:10;;;;;;;;;;;;;;;23.25;47.42;93969.00;5008004;28;9204;-60
2024/03/15 00:52:57;;;;;;;;;;;;;;;23.23;47.44;93966.78;4989787;28;9476;-59
2024/03/15 00:55:27;;;;;;;;;;;;;;;23.21;47.58;93963.78;5009922;28;9743;-59
2024/03/15 00:58:40;;;;;;;;;;;;;;;23.23;48.15;93966.03;4996188;28;9202;-59
2024/03/15 01:01:22;;;;;;;;;;;;;;;23.23;47.65;93964.03;5006158;28;9040;-60
2024/03/15 01:07:22;;;;;;;;;;;;;;;23.20;47.75;93964.31;4954306;28;9385;-59
2024/03/15 01:09:51;;;;;;;;;;;;;;;23.19;47.98;93965.53;4943445;28;9837;-59
2024/03/15 01:12:34;;;;;;;;;;;;;;;23.22;47.40;93956.31;4983910;28;9252;-59
2024/03/15 01:15:17;;;;;;;;;;;;;;;23.20;47.61;93959.56;5009644;28;9142;-59
2024/03/15 01:17:47;;;;;;;;;;;;;;;23.20;47.24;93956.81;5007293;28;7204;-59
2024/03/15 01:20:13;;;;;;;;;;;;;;;23.20;47.75;93951.34;4993779;28;9231;-59
2024/03/15 01:22:41;;;;;;;;;;;;;;;23.20;47.58;93954.09;4998491;28;9044;-59
2024/03/15 01:25:07;;;;;;;;;;;;;;;23.17;47.66;93951.59;4983319;28;9286;-59
2024/03/15 01:27:35;;;;;;;;;;;;;;;23.19;47.42;93957.31;4984497;28;7251;-59
2024/03/15 01:30:02;;;;;;;;;;;;;;;23.17;47.27;93951.59;4994304;28;8637;-60
2024/03/15 01:32:28;;;;;;;;;;;;;;;23.19;47.30;93960.81;5005135;28;8961;-59
2024/03/15 01:34:54;;;;;;;;;;;;;;;23.18;47.63;93956.56;5009396;28;9507;-59
2024/03/15 01:37:20;;;;;;;;;;;;;;;23.17;47.48;93955.09;5011689;28;9574;-65
2024/03/15 01:39:48;;;;;;;;;;;;;;;23.18;47.74;93953.81;5026028;28;9223;-65
2024/03/15 01:42:15;;;;;;;;;;;;;;;23.19;47.85;93954.56;5031137;28;9036;-65
2024/03/15 01:44:48;;;;;;;;;;;;;;;23.17;47.33;93952.34;5058917;28;9462;-65
2024/03/15 01:47:15;;;;;;;;;;;;;;;23.17;47.91;93957.81;5085917;28;8265;-65
2024/03/15 01:50:11;;;;;;;;;;;;;;;23.14;47.79;93949.88;5075236;28;9035;-65
2024/03/15 01:52:47;;;;;;;;;;;;;;;23.15;47.76;93956.84;4999426;28;7226;-65
2024/03/15 01:55:19;;;;;;;;;;;;;;;23.16;47.70;93952.84;4977038;28;8927;-65
2024/03/15 01:58:12;;;;;;;;;;;;;;;23.14;47.26;93950.59;4975362;28;9017;-65
2024/03/15 02:01:13;;;;;;;;;;;;;;;23.16;47.40;93961.09;4991820;28;9062;-66
2024/03/15 02:03:39;;;;;;;;;;;;;;;23.15;47.92;93957.59;4983422;28;7230;-66
2024/03/15 02:06:08;;;;;;;;;;;;;;;23.15;47.19;93954.09;4989734;28;9364;-66
2024/03/15 02:08:34;;;;;;;;;;;;;;;23.12;47.40;93949.59;4979054;28;9084;-65
2024/03/15 02:11:00;;;;;;;;;;;;;;;23.15;47.24;93957.59;5002050;28;9455;-65
2024/03/15 02:13:28;;;;;;;;;;;;;;;23.14;47.27;93947.84;4991833;28;9478;-65
2024/03/15 02:15:54;;;;;;;;;;;;;;;23.14;47.76;93947.13;5005626;28;7019;-65
2024/03/15 02:18:21;;;;;;;;;;;;;;;23.14;47.47;93958.81;4994236;28;8796;-65
2024/03/15 02:20:48;;;;;;;;;;;;;;;23.14;47.69;93953.34;4982654;28;9080;-65
2024/03/15 02:23:24;;;;;;;;;;;;;;;23.15;47.75;93954.84;4993742;28;9374;-65
2024/03/15 02:25:50;;;;;;;;;;;;;;;23.11;47.38;93946.13;4986209;28;8748;-65
2024/03/15 02:28:22;;;;;;;;;;;;;;;23.12;47.23;93955.09;5006086;28;9418;-65
2024/03/15 02:30:48;;;;;;;;;;;;;;;23.10;47.27;93947.38;5071875;28;7446;-65
2024/03/15 02:33:16;;;;;;;;;;;;;;;23.12;47.30;93952.34;5073209;28;7054;-65
2024/03/15 02:35:43;;;;;;;;;;;;;;;23.10;47.17;93952.09;5059048;28;9142;-65
2024/03/15 02:38:09;;;;;;;;;;;;;;;23.11;47.50;93954.38;5072882;28;9420;-66
2024/03/15 02:40:37;;;;;;;;;;;;;;;23.07;47.21;93951.13;5054752;28;9223;-65
2024/03/15 02:43:06;;;;;;;;;;;;;;;23.06;47.42;93952.38;5054873;28;7616;-65
2024/03/15 02:45:32;;;;;;;;;;;;;;;23.09;47.32;93950.63;5054881;28;9475;-60
2024/03/15 02:48:38;;;;;;;;;;;;;;;23.10;47.00;93957.59;5068030;28;9057;-61
2024/03/15 02:51:34;;;;;;;;;;;;;;;23.08;47.39;93957.34;5053767;28;9881;-61
2024/03/15 02:54:02;;;;;;;;;;;;;;;23.09;47.50;93962.34;4995193;28;9068;-61
2024/03/15 02:56:37;;;;;;;;;;;;;;;23.08;47.39;93957.34;4995355;28;9503;-60
2024/03/15 02:59:08;;;;;;;;;;;;;;;23.08;47.46;93960.09;4993191;28;9522;-60
2024/03/15 03:02:09;;;;;;;;;;;;;;;23.07;47.23;93959.38;5010263;28;8468;-61
2024/03/15 03:04:56;;;;;;;;;;;;;;;23.06;46.99;93963.34;4997543;28;8697;-60
2024/03/15 03:07:38;;;;;;;;;;;;;;;23.05;47.20;93963.88;4998939;28;9138;-60
2024/03/15 03:10:24;;;;;;;;;;;;;;;23.04;47.23;93965.09;4998451;28;9341;-61
2024/03/15 03:13:03;;;;;;;;;;;;;;;23.04;47.20;93967.84;4998698;28;9034;-61
2024/03/15 03:15:46;;;;;;;;;;;;;;;23.04;47.49;93971.34;4998551;28;9525;-60
2024/03/15 03:18:22;;;;;;;;;;;;;;;23.04;46.94;93962.34;4998712;28;7071;-61
2024/03/15 03:21:07;;;;;;;;;;;;;;;23.05;46.98;93978.31;4979439;28;9351;-61
2024/03/15 03:23:45;;;;;;;;;;;;;;;23.05;47.51;93977.56;4996892;28;9033;-61
2024/03/15 03:26:25;;;;;;;;;;;;;;;23.03;46.82;93978.06;4998216;28;9538;-61
2024/03/15 03:29:00;;;;;;;;;;;;;;;23.05;47.24;93975.56;4998052;28;7217;-61
2024/03/15 03:31:34;;;;;;;;;;;;;;;23.03;47.12;93989.03;5040543;28;9251;-60
2024/03/15 03:34:05;;;;;;;;;;;;;;;23.02;46.86;93990.28;5054600;28;7338;-61
2024/03/15 03:36:44;;;;;;;;;;;;;;;23.02;47.14;93982.06;5074700;28;7241;-61
2024/03/15 03:39:11;;;;;;;;;;;;;;;23.02;47.11;93997.78;5077229;28;9075;-61
2024/03/15 03:41:37;;;;;;;;;;;;;;;23.01;47.42;93994.28;5091983;28;8693;-61
2024/03/15 03:44:05;;;;;;;;;;;;;;;23.01;47.25;93996.28;5094382;28;8870;-60
2024/03/15 03:46:42;;;;;;;;;;;;;;;23.01;47.26;94002.50;5084968;28;9455;-60
2024/03/15 03:49:14;;;;;;;;;;;;;;;23.01;47.20;93999.03;5085741;28;7245;-61
2024/03/15 03:51:57;;;;;;;;;;;;;;;22.98;46.73;94000.03;5066720;28;8917;-61
2024/03/15 03:54:27;;;;;;;;;;;;;;;22.93;47.03;94000.78;5069779;28;8775;-61
2024/03/15 03:56:57;;;;;;;;;;;;;;;22.96;47.32;94005.28;5076291;28;9404;-61
2024/03/15 03:59:29;;;;;;;;;;;;;;;22.98;47.32;94000.03;5066684;28;8698;-61
2024/03/15 04:02:04;;;;;;;;;;;;;;;22.97;47.33;94007.50;5086927;28;8869;-61
2024/03/15 04:04:36;;;;;;;;;;;;;;;22.97;47.14;94010.25;5062685;28;9375;-61
2024/03/15 04:07:19;;;;;;;;;;;;;;;22.98;47.31;94002.78;5068814;28;8947;-61
2024/03/15 04:09:57;;;;;;;;;;;;;;;22.95;47.33;94009.25;5064478;28;7094;-61
2024/03/15 04:12:27;;;;;;;;;;;;;;;22.96;47.30;94013.50;5075770;28;8824;-61
2024/03/15 04:15:02;;;;;;;;;;;;;;;22.92;46.79;94002.03;5094553;28;9001;-61
2024/03/15 04:17:38;;;;;;;;;;;;;;;22.96;47.02;94008.78;5072243;28;8819;-61
2024/03/15 04:20:39;;;;;;;;;;;;;;;22.96;46.88;94006.03;5087876;28;7027;-61
2024/03/15 04:23:20;;;;;;;;;;;;;;;22.95;46.84;94012.75;5033235;28;8990;-61
2024/03/15 04:25:59;;;;;;;;;;;;;;;22.93;47.03;94015.25;5029381;28;6861;-61
2024/03/15 04:28:29;;;;;;;;;;;;;;;22.93;46.96;94018.00;5031739;28;10194;-61
2024/03/15 04:31:16;;;;;;;;;;;;;;;22.93;46.95;94009.75;5030848;28;9120;-61
2024/03/15 04:34:09;;;;;;;;;;;;;;;22.92;47.24;94015.75;5024826;28;7217;-61
2024/03/15 04:36:57;;;;;;;;;;;;;;;22.90;47.19;94016.25;5016800;28;9487;-61
2024/03/15 04:39:23;;;;;;;;;;;;;;;22.91;47.00;94017.00;5026311;28;9433;-61
2024/03/15 04:41:48;;;;;;;;;;;;;;;22.85;46.91;94011.53;5019534;28;9160;-61
2024/03/15 04:44:14;;;;;;;;;;;;;;;22.91;47.26;94017.00;5015112;28;9097;-61
2024/03/15 04:46:50;;;;;;;;;;;;;;;22.90;46.70;94026.47;5019272;28;9217;-61
2024/03/15 04:49:29;;;;;;;;;;;;;;;22.90;47.13;94023.75;5028146;28;9142;-61
2024/03/15 04:51:58;;;;;;;;;;;;;;;22.89;46.90;94022.25;5016717;28;9251;-61
2024/03/15 04:54:52;;;;;;;;;;;;;;;22.91;47.04;94023.22;5016351;28;9544;-61
2024/03/15 04:57:21;;;;;;;;;;;;;;;22.88;47.57;94021.47;5020225;28;9490;-61
2024/03/15 04:59:46;;;;;;;;;;;;;;;22.88;47.09;94028.97;5068162;28;9785;-61
2024/03/15 05:02:17;;;;;;;;;;;;;;;22.85;46.92;94019.00;5073766;28;8759;-60
2024/03/15 05:04:46;;;;;;;;;;;;;;;22.86;47.13;94020.50;5065744;28;9567;-61
2024/03/15 05:07:47;;;;;;;;;;;;;;;22.83;47.03;94016.03;5072747;28;7053;-60
2024/03/15 05:10:28;;;;;;;;;;;;;;;22.87;46.61;94019.25;5009390;28;9095;-60
2024/03/15 05:13:20;;;;;;;;;;;;;;;22.86;46.55;94023.97;5010613;28;8226;-60
2024/03/15 05:15:47;;;;;;;;;;;;;;;22.86;46.95;94031.47;5012272;28;9655;-60
2024/03/15 05:18:26;;;;;;;;;;;;;;;22.87;46.57;94027.47;4996192;28;7313;-60
2024/03/15 05:21:03;;;;;;;;;;;;;;;22.86;47.23;94031.47;5012277;28;6880;-60
2024/03/15 05:23:53;;;;;;;;;;;;;;;22.87;46.97;94020.00;5012239;28;9454;-60
2024/03/15 05:26:25;;;;;;;;;;;;;;;22.88;46.48;94029.72;4993670;28;9051;-60
2024/03/15 05:29:01;;;;;;;;;;;;;;;22.86;47.25;94039.72;4996204;28;9001;-60
2024/03/15 05:31:41;;;;;;;;;;;;;;;22.86;46.83;94037.69;5012602;28;8979;-60
2024/03/15 05:34:56;;;;;;;;;;;;;;;22.90;46.88;94034.72;5012135;28;9082;-60
2024/03/15 05:37:22;;;;;;;;;;;;;;;22.92;47.10;94041.16;5008987;28;9075;-60
2024/03/15 05:39:48;;;;;;;;;;;;;;;22.93;47.09;94037.19;4995911;28;9391;-60
2024/03/15 05:42:14;;;;;;;;;;;;;;;22.95;46.83;94040.19;4993035;28;8739;-61
2024/03/15 05:44:45;;;;;;;;;;;;;;;22.98;47.46;94041.94;5042701;28;6952;-59
2024/03/15 05:47:14;;;;;;;;;;;;;;;22.92;46.67;94041.16;5076036;28;8949;-61
2024/03/15 05:49:40;;;;;;;;;;;;;;;22.98;47.11;94052.91;5086374;28;9127;-61
2024/03/15 05:52:36;;;;;;;;;;;;;;;23.00;46.74;94052.38;5066306;28;8745;-61
2024/03/15 05:55:11;;;;;;;;;;;;;;;23.00;47.11;94052.38;5031829;28;7034;-61
2024/03/15 05:57:39;;;;;;;;;;;;;;;23.00;46.85;94044.91;5014879;28;9161;-61
2024/03/15 06:00:13;;;;;;;;;;;;;;;22.99;47.11;94057.13;5020367;28;9341;-62
2024/03/15 06:02:40;;;;;;;;;;;;;;;23.01;47.17;94054.63;5020814;28;7030;-64
2024/03/15 06:05:07;;;;;;;;;;;;;;;23.03;47.40;94057.59;5032081;28;8878;-64
2024/03/15 06:07:47;;;;;;;;;;;;;;;23.07;47.76;94058.13;5031918;28;7044;-64
2024/03/15 06:10:32;;;;;;;;;;;;;;;23.07;47.88;94057.38;5017801;28;8615;-64
2024/03/15 06:12:59;;;;;;;;;;;;;;;23.08;47.48;94065.09;5015216;28;8801;-64
2024/03/15 06:15:43;;;;;;;;;;;;;;;23.09;47.61;94069.34;5014598;28;8737;-64
2024/03/15 06:18:17;;;;;;;;;;;;;;;23.11;47.88;94074.31;5032432;28;9348;-65
2024/03/15 06:20:45;;;;;;;;;;;;;;;23.06;46.46;94070.31;5030370;28;9066;-63
2024/03/15 06:23:22;;;;;;;;;;;;;;;22.99;45.69;94072.81;5010813;28;9345;-65
2024/03/15 06:26:08;;;;;;;;;;;;;;;22.95;46.61;94073.09;5000483;28;7192;-62
2024/03/15 06:28:37;;;;;;;;;;;;;;;22.89;47.14;94069.59;5028894;28;8142;-61
2024/03/15 06:31:04;;;;;;;;;;;;;;;22.98;47.21;94074.84;5030808;28;9234;-63
2024/03/15 06:34:23;;;;;;;;;;;;;;;23.03;47.03;94073.34;5069938;28;9126;-63
2024/03/15 06:36:53;;;;;;;;;;;;;;;23.03;47.72;94079.53;5002786;28;7056;-64
2024/03/15 06:40:00;;;;;;;;;;;;;;;23.03;46.93;94085.03;5007635;28;9521;-65
2024/03/15 06:45:23;;;;;;;;;;;;;;;22.99;46.56;94090.03;5036187;28;8771;-65
2024/03/15 06:48:07;;;;;;;;;;;;;;;23.05;46.27;94088.03;4999415;28;9726;-65
2024/03/15 06:51:00;;;;;;;;;;;;;;;23.09;46.40;94094.03;5003179;28;9411;-65
2024/03/15 06:53:59;;;;;;;;;;;;;;;23.17;46.16;94100.47;5024889;28;9107;-65
2024/03/15 06:56:26;;;;;;;;;;;;;;;23.23;46.36;94092.22;5029653;28;9416;-67
2024/03/15 06:58:54;;;;;;;;;;;;;;;23.28;44.91;94094.22;5014874;28;7259;-67
2024/03/15 07:01:20;;;;;;;;;;;;;;;23.39;45.25;94104.44;5012342;28;9649;-67
2024/03/15 07:04:07;;;;;;;;;;;;;;;23.51;45.00;94100.44;5023856;28;8765;-67
2024/03/15 07:06:52;;;;;;;;;;;;;;;23.66;44.91;94112.59;5012471;28;9423;-68
2024/03/15 07:10:02;;;;;;;;;;;;;;;23.78;45.02;94110.56;5014708;28;9907;-67
2024/03/15 07:12:49;;;;;;;;;;;;;;;23.92;44.48;94109.53;5022711;28;8744;-67
2024/03/15 07:15:30;;;;;;;;;;;;;;;24.01;44.25;94106.50;5079707;28;8205;-65
2024/03/15 07:18:27;;;;;;;;;;;;;;;24.11;44.20;94118.69;5089359;28;9042;-65
2024/03/15 07:21:28;;;;;;;;;;;;;;;24.20;43.60;94117.66;5022503;28;9095;-66
2024/03/15 07:23:53;;;;;;;;;;;;;;;24.27;43.67;94126.09;5014254;28;9474;-65
2024/03/15 07:26:22;;;;;;;;;;;;;;;24.31;44.17;94123.84;5029294;28;9441;-65
2024/03/15 07:28:47;;;;;;;;;;;;;;;24.36;44.20;94125.06;5015005;28;7103;-65
2024/03/15 07:31:13;;;;;;;;;;;;;;;24.39;43.94;94132.28;5006879;28;9476;-65
2024/03/15 07:33:48;;;;;;;;;;;;;;;24.41;44.25;94129.75;5014696;28;9067;-65
2024/03/15 07:37:01;;;;;;;;;;;;;;;24.43;43.44;94133.50;5000507;28;8763;-66
2024/03/15 07:39:30;;;;;;;;;;;;;;;24.44;43.42;94142.50;5017151;28;8628;-65
2024/03/15 07:42:01;;;;;;;;;;;;;;;24.41;43.93;94125.03;5026797;28;9106;-66
2024/03/15 07:44:30;;;;;;;;;;;;;;;24.43;44.23;94133.50;5017678;28;9301;-66
2024/03/15 07:46:57;;;;;;;;;;;;;;;24.40;43.81;94142.75;5017905;28;8890;-66
2024/03/15 07:49:42;;;;;;;;;;;;;;;24.33;43.87;94113.09;5017504;28;8477;-66
2024/03/15 07:52:42;;;;;;;;;;;;;;;24.34;44.37;94125.56;5004369;28;9372;-65
2024/03/15 07:55:20;;;;;;;;;;;;;;;24.28;43.73;94122.09;5018523;28;9708;-66
2024/03/15 07:58:18;;;;;;;;;;;;;;;24.26;43.60;94124.63;5065492;28;9117;-65
2024/03/15 08:00:45;;;;;;;;;;;;;;;24.21;43.96;94125.38;5086667;28;8867;-66
2024/03/15 08:03:48;;;;;;;;;;;;;;;24.17;44.33;94133.16;5095329;28;8778;-66
2024/03/15 08:06:53;;;;;;;;;;;;;;;24.11;44.99;94123.44;5095120;28;8810;-65
2024/03/15 08:09:29;;;;;;;;;;;;;;;24.05;44.63;94131.72;5068528;28;9310;-66
2024/03/15 08:11:55;;;;;;;;;;;;;;;23.98;45.80;94134.97;5093814;28;8785;-66
2024/03/15 08:14:42;;;;;;;;;;;;;;;23.93;45.69;94132.97;5078024;28;9085;-66
2024/03/15 08:17:50;;;;;;;;;;;;;;;23.85;45.49;94135.53;5083829;28;8968;-66
2024/03/15 08:20:16;;;;;;;;;;;;;;;23.80;46.25;94124.53;5088233;28;9361;-66
2024/03/15 08:22:44;;;;;;;;;;;;;;;23.76;45.26;94137.78;5058135;28;9024;-66
2024/03/15 08:25:16;;;;;;;;;;;;;;;23.72;45.00;94134.56;5087953;28;8783;-60
2024/03/15 08:27:58;;;;;;;;;;;;;;;23.68;45.70;94136.81;5073257;28;7475;-60
2024/03/15 08:30:37;;;;;;;;;;;;;;;23.61;45.67;94132.59;5088030;28;8719;-60
2024/03/15 08:33:22;;;;;;;;;;;;;;;23.60;46.10;94141.31;5070633;28;8747;-60
2024/03/15 08:35:56;;;;;;;;;;;;;;;23.57;46.17;94131.38;5074230;28;9548;-61
2024/03/15 08:38:38;;;;;;;;;;;;;;;23.52;46.47;94138.34;5079908;28;9262;-61
2024/03/15 08:41:04;;;;;;;;;;;;;;;23.51;46.66;94139.59;5056342;28;9116;-60
2024/03/15 08:43:32;;;;;;;;;;;;;;;23.49;46.43;94144.13;5057149;28;7208;-61
2024/03/15 08:46:01;;;;;;;;;;;;;;;23.46;46.84;94142.38;5073725;28;7298;-61
2024/03/15 08:48:30;;;;;;;;;;;;;;;23.42;46.55;94136.41;5065879;28;7972;-61
2024/03/15 08:51:03;;;;;;;;;;;;;;;23.44;46.36;94150.34;5064363;28;7302;-61
2024/03/15 08:53:41;;;;;;;;;;;;;;;23.42;46.89;94145.38;5056615;28;7226;-61
2024/03/15 08:56:08;;;;;;;;;;;;;;;23.40;47.21;94155.38;5066003;28;7073;-60
2024/03/15 08:58:40;;;;;;;;;;;;;;;23.33;47.04;94142.13;5071091;28;7064;-60
2024/03/15 09:01:06;;;;;;;;;;;;;;;23.37;47.41;94148.13;5043690;28;7045;-60
2024/03/15 09:03:34;;;;;;;;;;;;;;;23.31;47.29;94142.63;5047425;28;7036;-60
2024/03/15 09:06:06;;;;;;;;;;;;;;;23.35;47.45;94145.88;5068400;28;9552;-63
2024/03/15 09:08:34;;;;;;;;;;;;;;;23.33;47.78;94139.38;5060422;28;7026;-61
2024/03/15 09:11:34;;;;;;;;;;;;;;;23.32;47.72;94146.09;5061793;28;7023;-61
2024/03/15 09:14:03;;;;;;;;;;;;;;;23.31;47.31;94142.63;4987183;28;7362;-60
2024/03/15 09:16:41;;;;;;;;;;;;;;;23.30;47.74;94138.38;4979999;28;9053;-61
2024/03/15 09:19:21;;;;;;;;;;;;;;;23.26;47.87;94140.63;4990825;28;8819;-61
2024/03/15 09:21:59;;;;;;;;;;;;;;;23.24;47.44;94141.13;5007499;28;9182;-61
2024/03/15 09:24:25;;;;;;;;;;;;;;;23.19;47.80;94144.63;4985121;28;9057;-61
2024/03/15 09:26:52;;;;;;;;;;;;;;;23.21;47.86;94138.63;4994108;28;9030;-61
2024/03/15 09:29:22;;;;;;;;;;;;;;;23.21;47.61;94141.38;4989127;28;8231;-61
2024/03/15 09:31:54;;;;;;;;;;;;;;;23.20;47.99;94140.66;4991578;28;9550;-61
2024/03/15 09:34:22;;;;;;;;;;;;;;;23.18;47.77;94140.38;4979767;28;9384;-61
2024/03/15 09:36:48;;;;;;;;;;;;;;;23.13;47.96;94146.63;4991925;28;9022;-62
2024/03/15 09:39:16;;;;;;;;;;;;;;;23.15;48.03;94146.13;4987201;28;8946;-62
2024/03/15 09:41:50;;;;;;;;;;;;;;;23.17;48.10;94149.13;5012926;28;7766;-61
2024/03/15 09:44:18;;;;;;;;;;;;;;;23.15;47.61;94146.88;5031359;28;9563;-61
2024/03/15 09:46:45;;;;;;;;;;;;;;;23.12;47.95;94150.63;5036440;28;7186;-62
2024/03/15 09:49:56;;;;;;;;;;;;;;;23.16;47.94;94151.09;5019586;28;9376;-62
2024/03/15 09:52:22;;;;;;;;;;;;;;;23.14;48.11;94150.84;5080300;28;9066;-62
2024/03/15 09:55:08;;;;;;;;;;;;;;;23.15;48.07;94144.13;5051209;28;9127;-62
2024/03/15 09:57:36;;;;;;;;;;;;;;;23.13;47.88;94141.16;5076659;28;9230;-62
2024/03/15 10:00:12;;;;;;;;;;;;;;;23.15;47.52;94143.38;5053740;28;8730;-63
2024/03/15 10:02:40;;;;;;;;;;;;;;;23.15;48.02;94141.38;5056411;28;7241;-62
2024/03/15 10:05:10;;;;;;;;;;;;;;;23.15;47.82;94146.13;5056690;28;9331;-62
2024/03/15 10:07:38;;;;;;;;;;;;;;;23.14;47.80;94148.13;5052403;28;8897;-62
2024/03/15 10:10:11;;;;;;;;;;;;;;;23.15;47.89;94146.13;5078527;28;8784;-62
2024/03/15 10:12:52;;;;;;;;;;;;;;;23.18;48.10;94145.88;5058086;28;9078;-62
2024/03/15 10:15:23;;;;;;;;;;;;;;;23.19;48.07;94139.13;5065563;28;9140;-62
2024/03/15 10:17:55;;;;;;;;;;;;;;;23.19;47.85;94141.88;5057830;28;8710;-62
2024/03/15 10:20:26;;;;;;;;;;;;;;;23.19;47.69;94138.38;5072829;28;7156;-62
2024/03/15 10:22:56;;;;;;;;;;;;;;;23.18;47.97;94140.38;5064674;28;9119;-62
2024/03/15 10:25:28;;;;;;;;;;;;;;;23.19;47.37;94139.13;5056894;28;8615;-62
2024/03/15 10:28:25;;;;;;;;;;;;;;;23.21;48.21;94138.63;5064664;28;6856;-63
2024/03/15 10:31:00;;;;;;;;;;;;;;;23.20;48.65;94148.88;5036915;28;9412;-67
2024/03/15 10:33:26;;;;;;;;;;;;;;;23.31;50.17;94139.13;5054450;28;9086;-66
2024/03/15 10:35:56;;;;;;;;;;;;;;;23.42;64.07;94147.38;5040925;28;8601;-66
2024/03/15 10:38:23;;;;;;;;;;;;;;;23.91;69.16;94155.47;5053295;28;9024;-66
2024/03/15 10:40:49;;;;;;;;;;;;;;;24.32;68.95;94155.56;5051808;28;8623;-64
2024/03/15 10:43:18;;;;;;;;;;;;;;;24.65;67.63;94149.88;5037948;28;8776;-66
2024/03/15 10:45:47;;;;;;;;;;;;;;;24.93;66.28;94163.44;5037235;28;7280;-63
2024/03/15 10:48:26;;;;;;;;;;;;;;;25.12;59.49;94147.78;5041525;28;8811;-65
2024/03/15 10:50:57;;;;;;;;;;;;;;;25.17;52.59;94137.97;5037742;28;7027;-65
2024/03/15 10:53:42;;;;;;;;;;;;;;;25.16;48.88;94131.00;5047726;28;9294;-65
2024/03/15 10:56:45;;;;;;;;;;;;;;;25.06;48.57;94127.06;5037260;28;9079;-65
2024/03/15 10:59:23;;;;;;;;;;;;;;;24.43;47.79;94124.50;5053475;28;9333;-68
2024/03/15 11:02:00;;;;;;;;;;;;;;;24.08;48.06;94130.69;5035904;28;8973;-68
2024/03/15 11:04:53;;;;;;;;;;;;;;;23.88;48.09;94139.25;5049555;28;8735;-64
2024/03/15 11:07:20;;;;;;;;;;;;;;;23.72;47.75;94134.56;5071065;28;9364;-65
2024/03/15 11:09:54;;;;;;;;;;;;;;;23.70;47.72;94135.06;5086259;28;9817;-64
2024/03/15 11:12:36;;;;;;;;;;;;;;;23.64;48.12;94136.34;5063581;28;7521;-64
2024/03/15 11:15:17;;;;;;;;;;;;;;;23.61;48.09;94131.84;5073856;28;9240;-64
2024/03/15 11:17:56;;;;;;;;;;;;;;;23.58;48.04;94138.34;5082363;28;8777;-65
2024/03/15 11:20:41;;;;;;;;;;;;;;;23.56;48.31;94130.59;5077505;28;8718;-65
2024/03/15 11:23:46;;;;;;;;;;;;;;;23.56;48.03;94138.84;5086837;28;7248;-65
2024/03/15 11:26:22;;;;;;;;;;;;;;;23.53;48.08;94137.09;5084904;28;9440;-65
2024/03/15 11:29:31;;;;;;;;;;;;;;;23.53;48.34;94130.88;5095083;28;7242;-65
2024/03/15 11:32:10;;;;;;;;;;;;;;;23.53;48.30;94137.09;5083830;28;9029;-65
2024/03/15 11:34:39;;;;;;;;;;;;;;;23.53;47.92;94130.88;5066368;28;9123;-65
2024/03/15 11:37:12;;;;;;;;;;;;;;;23.52;48.16;94126.63;5076704;28;9437;-65
2024/03/15 11:39:39;;;;;;;;;;;;;;;23.52;47.90;94129.38;5069330;28;9796;-64
2024/03/15 11:42:06;;;;;;;;;;;;;;;23.50;48.35;94131.88;5086946;28;9488;-65
2024/03/15 11:44:36;;;;;;;;;;;;;;;23.52;48.29;94129.38;5083894;28;8875;-65
2024/03/15 11:47:13;;;;;;;;;;;;;;;23.51;47.84;94133.38;5084382;28;7118;-64
2024/03/15 11:49:41;;;;;;;;;;;;;;;23.53;47.92;94128.13;5092420;28;9000;-64
2024/03/15 11:52:12;;;;;;;;;;;;;;;23.55;47.73;94125.63;5076894;28;8718;-65
2024/03/15 11:54:38;;;;;;;;;;;;;;;23.56;47.77;94125.13;5085330;28;7104;-61
2024/03/15 11:57:13;;;;;;;;;;;;;;;23.61;48.30;94123.63;5081632;28;8693;-62
2024/03/15 11:59:53;;;;;;;;;;;;;;;23.66;48.17;94128.34;5074935;28;9049;-62
2024/03/15 12:02:20;;;;;;;;;;;;;;;23.68;47.84;94112.88;5067734;28;8790;-62
2024/03/15 12:04:47;;;;;;;;;;;;;;;23.72;47.54;94126.31;5088416;28;9141;-62
2024/03/15 12:07:26;;;;;;;;;;;;;;;23.73;47.49;94119.56;5085258;28;9041;-62
2024/03/15 12:10:01;;;;;;;;;;;;;;;23.78;48.35;94121.56;5082039;28;9266;-61
2024/03/15 12:12:34;;;;;;;;;;;;;;;23.82;47.77;94116.53;5075699;28;7357;-63
2024/03/15 12:15:00;;;;;;;;;;;;;;;23.81;47.32;94115.06;5086849;28;9080;-62
2024/03/15 12:17:28;;;;;;;;;;;;;;;23.82;47.10;94119.28;5091941;28;10082;-62
2024/03/15 12:20:05;;;;;;;;;;;;;;;23.83;47.49;94098.81;5075298;28;9461;-62
2024/03/15 12:23:00;;;;;;;;;;;;;;;23.85;47.40;94101.81;5073506;28;9483;-62
2024/03/15 12:25:26;;;;;;;;;;;;;;;23.86;47.81;94095.81;5032233;28;9011;-62
2024/03/15 12:27:52;;;;;;;;;;;;;;;23.86;47.99;94092.31;5026404;28;9356;-62
2024/03/15 12:30:20;;;;;;;;;;;;;;;23.88;47.31;94100.81;5028618;28;8938;-62
2024/03/15 12:32:46;;;;;;;;;;;;;;;23.88;46.58;94100.81;5012409;28;7235;-62
2024/03/15 12:35:13;;;;;;;;;;;;;;;23.89;46.70;94099.53;5031998;28;8710;-61
2024/03/15 12:37:52;;;;;;;;;;;;;;;23.92;46.76;94093.78;5032594;28;8760;-60
2024/03/15 12:40:28;;;;;;;;;;;;;;;23.94;47.26;94096.03;5030401;28;9265;-62
2024/03/15 12:42:54;;;;;;;;;;;;;;;23.96;46.71;94102.50;5028226;28;8602;-61
2024/03/15 12:45:22;;;;;;;;;;;;;;;23.96;47.20;94097.03;5011570;28;8688;-61
2024/03/15 12:47:48;;;;;;;;;;;;;;;23.98;46.63;94100.00;5012879;28;8782;-61
2024/03/15 12:50:23;;;;;;;;;;;;;;;23.99;47.12;94092.50;5009452;28;9447;-61
2024/03/15 12:52:49;;;;;;;;;;;;;;;24.02;46.56;94093.47;5026360;28;9094;-61
2024/03/15 12:55:17;;;;;;;;;;;;;;;23.99;46.75;94092.50;5012975;28;8999;-60
2024/03/15 12:57:48;;;;;;;;;;;;;;;24.00;46.36;94094.00;5014021;28;8711;-61
2024/03/15 13:00:19;;;;;;;;;;;;;;;24.03;46.65;94084.00;5014555;28;9447;-61
2024/03/15 13:02:47;;;;;;;;;;;;;;;23.99;46.67;94096.00;5063450;28;9681;-61
2024/03/15 13:05:14;;;;;;;;;;;;;;;24.02;46.98;94091.47;5084482;28;8772;-61
2024/03/15 13:08:07;;;;;;;;;;;;;;;24.03;46.27;94095.75;5064970;28;9413;-61
2024/03/15 13:10:45;;;;;;;;;;;;;;;24.05;46.59;94096.00;5057792;28;9026;-61
2024/03/15 13:13:11;;;;;;;;;;;;;;;24.03;46.41;94095.75;5057269;28;8711;-61
2024/03/15 13:16:08;;;;;;;;;;;;;;;24.05;46.55;94087.00;5057183;28;7229;-61
2024/03/15 13:18:45;;;;;;;;;;;;;;;24.05;45.99;94081.50;4977413;28;9040;-62
2024/03/15 13:21:35;;;;;;;;;;;;;;;24.01;46.10;94075.50;5120496;27;6735;-59
2024/03/15 13:24:03;;;;;;;;;;;;;;;24.02;46.08;94077.75;5082562;28;7502;-60
2024/03/15 13:26:31;;;;;;;;;;;;;;;24.02;46.16;94069.50;5064931;28;7303;-59
2024/03/15 13:28:58;;;;;;;;;;;;;;;24.06;45.92;94078.25;5050855;28;9873;-59
2024/03/15 13:31:27;;;;;;;;;;;;;;;24.03;46.06;94076.50;5097978;28;7266;-60
2024/03/15 13:33:53;;;;;;;;;;;;;;;24.11;46.06;94080.22;5070244;28;7042;-60
2024/03/15 13:36:25;;;;;;;;;;;;;;;24.15;45.77;94077.97;5063828;28;7049;-60
2024/03/15 13:38:50;;;;;;;;;;;;;;;24.14;45.93;94062.72;5061266;28;9125;-59
2024/03/15 13:41:27;;;;;;;;;;;;;;;24.23;46.05;94069.94;5069931;28;9885;-59
2024/03/15 13:44:13;;;;;;;;;;;;;;;24.37;45.25;94074.31;5071213;28;9132;-60
2024/03/15 13:46:52;;;;;;;;;;;;;;;24.44;45.17;94077.28;5068618;28;7798;-60
2024/03/15 13:49:46;;;;;;;;;;;;;;;24.63;45.88;94072.63;5070599;28;6905;-60
2024/03/15 13:52:12;;;;;;;;;;;;;;;24.75;44.97;94070.56;5067059;28;7049;-60